Time;durP1;ratioP1;P1;durP2;ratioP2;P2;SDS_P1;SDS_P2;PMS_P1;PMS_P2;Temp;Humidity;BMP_temperature;BMP_pressure;BME280_temperature;BME280_humidity;BME280_pressure;Samples;Min_cycle;Max_cycle;Signal;HPM_P1;HPM_P2
2023/03/31 00:02:42;;;;;;;;;;;;;;;;;;5006657;28;19929;-85
2023/03/31 00:05:32;;;;;;;;;;;;;;;;;;4995447;28;19914;-85
2023/03/31 00:08:18;;;;;;;;;;;;;;;;;;5004852;28;19921;-84
2023/03/31 00:11:06;;;;;;;;;;;;;;;;;;5004159;28;20665;-84
2023/03/31 00:13:52;;;;;;;;;;;;;;;;;;5000567;28;19918;-84
2023/03/31 00:16:39;;;;;;;;;;;;;;;;;;4999913;28;19940;-82
2023/03/31 00:19:27;;;;;;;;;;;;;;;;;;5000312;28;19924;-84
2023/03/31 00:22:17;;;;;;;;;;;;;;;;;;4990028;28;19929;-86
2023/03/31 00:25:04;;;;;;;;;;;;;;;;;;4991300;28;19928;-85
2023/03/31 00:27:51;;;;;;;;;;;;;;;;;;4982045;28;19929;-85
2023/03/31 00:30:38;;;;;;;;;;;;;;;;;;5001964;28;20365;-86
2023/03/31 00:33:25;;;;;;;;;;;;;;;;;;4991661;28;19985;-86
2023/03/31 00:36:12;;;;;;;;;;;;;;;;;;5000153;28;19933;-85
2023/03/31 00:38:58;;;;;;;;;;;;;;;;;;4992786;28;19929;-85
2023/03/31 00:41:45;;;;;;;;;;;;;;;;;;5002228;28;19921;-85
2023/03/31 00:44:33;;;;;;;;;;;;;;;;;;5001266;28;20681;-85
2023/03/31 00:47:19;;;;;;;;;;;;;;;;;;5006025;28;19932;-84
2023/03/31 00:50:07;;;;;;;;;;;;;;;;;;4999694;28;19921;-84
2023/03/31 00:52:54;;;;;;;;;;;;;;;;;;5001527;28;19928;-85
2023/03/31 00:55:40;;;;;;;;;;;;;;;;;;5005695;28;19940;-85
2023/03/31 00:58:27;;;;;;;;;;;;;;;;;;5000702;28;20294;-84
2023/03/31 01:01:13;;;;;;;;;;;;;;;;;;5001994;28;19929;-84
2023/03/31 01:04:01;;;;;;;;;;;;;;;;;;4998253;28;20367;-85
2023/03/31 01:06:49;;;;;;;;;;;;;;;;;;5002410;28;19922;-84
2023/03/31 01:09:37;;;;;;;;;;;;;;;;;;5003701;28;19981;-84
2023/03/31 01:12:24;;;;;;;;;;;;;;;;;;4999691;28;19975;-83
2023/03/31 01:15:10;;;;;;;;;;;;;;;;;;5003277;28;19929;-85
2023/03/31 01:17:57;;;;;;;;;;;;;;;;;;5000283;28;19925;-84
2023/03/31 01:20:43;;;;;;;;;;;;;;;;;;5003463;28;19925;-85
2023/03/31 01:23:30;;;;;;;;;;;;;;;;;;5000101;28;20410;-84
2023/03/31 01:26:17;;;;;;;;;;;;;;;;;;5005223;28;19928;-84
2023/03/31 01:29:03;;;;;;;;;;;;;;;;;;5001929;28;19968;-85
2023/03/31 01:31:50;;;;;;;;;;;;;;;;;;4991307;28;19925;-85
2023/03/31 01:34:36;;;;;;;;;;;;;;;;;;5000888;28;20338;-85
2023/03/31 01:37:23;;;;;;;;;;;;;;;;;;4983672;28;20329;-85
2023/03/31 01:40:09;;;;;;;;;;;;;;;;;;5002151;28;20317;-85
2023/03/31 01:42:56;;;;;;;;;;;;;;;;;;5001068;28;19944;-84
2023/03/31 01:45:42;;;;;;;;;;;;;;;;;;4991058;28;19921;-86
2023/03/31 01:48:32;;;;;;;;;;;;;;;;;;4996316;28;19918;-85
2023/03/31 01:51:19;;;;;;;;;;;;;;;;;;5000381;28;19918;-85
2023/03/31 01:54:05;;;;;;;;;;;;;;;;;;5002343;28;19925;-85
2023/03/31 01:56:52;;;;;;;;;;;;;;;;;;5005412;28;19924;-85
2023/03/31 01:59:39;;;;;;;;;;;;;;;;;;4994533;28;20289;-86
2023/03/31 02:02:25;;;;;;;;;;;;;;;;;;5012099;28;19929;-86
2023/03/31 02:05:12;;;;;;;;;;;;;;;;;;4991577;28;19952;-86
2023/03/31 02:07:58;;;;;;;;;;;;;;;;;;5004397;28;19917;-87
2023/03/31 02:10:45;;;;;;;;;;;;;;;;;;4998906;28;19922;-86
2023/03/31 02:13:33;;;;;;;;;;;;;;;;;;4999497;28;19913;-87
2023/03/31 02:16:23;;;;;;;;;;;;;;;;;;5000670;28;19945;-79
2023/03/31 02:19:09;;;;;;;;;;;;;;;;;;4996012;28;19914;-87
2023/03/31 02:21:56;;;;;;;;;;;;;;;;;;4982113;28;19930;-85
2023/03/31 02:24:42;;;;;;;;;;;;;;;;;;4998335;28;19927;-84
2023/03/31 02:27:29;;;;;;;;;;;;;;;;;;5002304;28;20281;-85
2023/03/31 02:30:15;;;;;;;;;;;;;;;;;;4991541;28;19920;-85
2023/03/31 02:33:03;;;;;;;;;;;;;;;;;;4984707;28;19918;-85
2023/03/31 02:35:50;;;;;;;;;;;;;;;;;;5003226;28;19988;-85
2023/03/31 02:38:36;;;;;;;;;;;;;;;;;;5001998;28;19924;-85
2023/03/31 02:41:23;;;;;;;;;;;;;;;;;;5002382;28;19928;-85
2023/03/31 02:44:09;;;;;;;;;;;;;;;;;;4996443;28;19944;-85
2023/03/31 02:46:56;;;;;;;;;;;;;;;;;;4993804;28;20384;-86
2023/03/31 02:49:42;;;;;;;;;;;;;;;;;;5001793;28;20377;-86
2023/03/31 02:52:29;;;;;;;;;;;;;;;;;;4996163;28;19929;-85
2023/03/31 02:55:16;;;;;;;;;;;;;;;;;;4995907;28;19917;-84
2023/03/31 02:58:02;;;;;;;;;;;;;;;;;;5006771;28;19922;-86
2023/03/31 03:00:49;;;;;;;;;;;;;;;;;;5008558;28;19921;-85
2023/03/31 03:03:35;;;;;;;;;;;;;;;;;;5005625;28;19934;-87
2023/03/31 03:06:22;;;;;;;;;;;;;;;;;;5005854;28;19928;-86
2023/03/31 03:09:08;;;;;;;;;;;;;;;;;;5004905;28;19920;-85
2023/03/31 03:11:55;;;;;;;;;;;;;;;;;;5005694;28;19921;-85
2023/03/31 03:14:41;;;;;;;;;;;;;;;;;;4999170;28;19945;-85
2023/03/31 03:17:28;;;;;;;;;;;;;;;;;;5006565;28;19932;-85
2023/03/31 03:20:15;;;;;;;;;;;;;;;;;;4997935;28;19921;-85
2023/03/31 03:23:01;;;;;;;;;;;;;;;;;;5001687;28;19926;-85
2023/03/31 03:25:48;;;;;;;;;;;;;;;;;;5003714;28;19924;-85
2023/03/31 03:28:34;;;;;;;;;;;;;;;;;;5003855;28;19917;-86
2023/03/31 03:31:22;;;;;;;;;;;;;;;;;;4998110;28;19926;-83
2023/03/31 03:34:09;;;;;;;;;;;;;;;;;;5006149;28;19917;-85
2023/03/31 03:36:55;;;;;;;;;;;;;;;;;;5003876;28;19921;-85
2023/03/31 03:39:42;;;;;;;;;;;;;;;;;;5003583;28;20625;-86
2023/03/31 03:42:28;;;;;;;;;;;;;;;;;;4998949;28;19933;-87
2023/03/31 03:45:15;;;;;;;;;;;;;;;;;;4991637;28;20383;-88
2023/03/31 03:48:01;;;;;;;;;;;;;;;;;;5005497;28;19921;-90
2023/03/31 03:50:47;;;;;;;;;;;;;;;;;;5000258;28;20288;-86
2023/03/31 03:53:34;;;;;;;;;;;;;;;;;;5003829;28;19933;-87
2023/03/31 03:56:21;;;;;;;;;;;;;;;;;;4996317;28;19922;-86
2023/03/31 03:59:07;;;;;;;;;;;;;;;;;;5003108;28;19918;-88
2023/03/31 04:01:54;;;;;;;;;;;;;;;;;;4996064;28;19933;-85
2023/03/31 04:04:40;;;;;;;;;;;;;;;;;;4998157;28;19921;-84
2023/03/31 04:07:27;;;;;;;;;;;;;;;;;;4987464;28;19926;-87
2023/03/31 04:10:13;;;;;;;;;;;;;;;;;;5006872;28;20591;-87
2023/03/31 04:13:00;;;;;;;;;;;;;;;;;;4998899;28;20378;-86
2023/03/31 04:15:46;;;;;;;;;;;;;;;;;;5002922;28;19925;-80
2023/03/31 04:18:36;;;;;;;;;;;;;;;;;;4985211;28;19922;-85
2023/03/31 04:21:22;;;;;;;;;;;;;;;;;;4999339;28;19917;-84
2023/03/31 04:24:11;;;;;;;;;;;;;;;;;;5006330;28;19924;-84
2023/03/31 04:26:58;;;;;;;;;;;;;;;;;;4998131;28;20301;-82
2023/03/31 04:29:46;;;;;;;;;;;;;;;;;;5002692;28;20297;-82
2023/03/31 04:32:35;;;;;;;;;;;;;;;;;;4991989;28;19921;-84
2023/03/31 04:35:21;;;;;;;;;;;;;;;;;;5001454;28;20641;-83
2023/03/31 04:38:08;;;;;;;;;;;;;;;;;;4999492;28;19932;-84
2023/03/31 04:40:55;;;;;;;;;;;;;;;;;;4999805;28;19918;-85
2023/03/31 04:43:41;;;;;;;;;;;;;;;;;;4995291;28;19948;-83
2023/03/31 04:46:28;;;;;;;;;;;;;;;;;;4995780;28;19928;-84
2023/03/31 04:49:14;;;;;;;;;;;;;;;;;;5003452;28;19918;-84
2023/03/31 04:52:01;;;;;;;;;;;;;;;;;;4995991;28;19928;-83
2023/03/31 04:54:47;;;;;;;;;;;;;;;;;;4996865;28;19914;-84
2023/03/31 04:57:34;;;;;;;;;;;;;;;;;;5004652;28;19925;-85
2023/03/31 05:00:20;;;;;;;;;;;;;;;;;;5003136;28;20304;-84
2023/03/31 05:03:08;;;;;;;;;;;;;;;;;;4996862;28;19967;-84
2023/03/31 05:05:54;;;;;;;;;;;;;;;;;;5000765;28;19914;-84
2023/03/31 05:08:41;;;;;;;;;;;;;;;;;;5003245;28;20296;-84
2023/03/31 05:11:27;;;;;;;;;;;;;;;;;;4999961;28;20385;-83
2023/03/31 05:14:14;;;;;;;;;;;;;;;;;;5003696;28;20393;-84
2023/03/31 05:17:00;;;;;;;;;;;;;;;;;;5002847;28;19922;-84
2023/03/31 05:19:47;;;;;;;;;;;;;;;;;;5002297;28;20353;-84
2023/03/31 05:22:33;;;;;;;;;;;;;;;;;;4992527;28;19930;-84
2023/03/31 05:25:21;;;;;;;;;;;;;;;;;;4991834;28;19925;-82
2023/03/31 05:28:08;;;;;;;;;;;;;;;;;;4991732;28;19925;-84
2023/03/31 05:30:55;;;;;;;;;;;;;;;;;;5004310;28;19992;-84
2023/03/31 05:33:41;;;;;;;;;;;;;;;;;;4984650;28;19967;-84
2023/03/31 05:36:28;;;;;;;;;;;;;;;;;;5000633;28;19929;-83
2023/03/31 05:39:15;;;;;;;;;;;;;;;;;;4990933;28;19920;-83
2023/03/31 05:42:02;;;;;;;;;;;;;;;;;;5004036;28;19926;-84
2023/03/31 05:44:48;;;;;;;;;;;;;;;;;;4994452;28;20296;-84
2023/03/31 05:47:35;;;;;;;;;;;;;;;;;;5003884;28;19918;-84
2023/03/31 05:50:22;;;;;;;;;;;;;;;;;;5001209;28;19942;-83
2023/03/31 05:53:08;;;;;;;;;;;;;;;;;;5001551;28;20373;-84
2023/03/31 05:55:55;;;;;;;;;;;;;;;;;;5002893;28;20262;-83
2023/03/31 05:58:41;;;;;;;;;;;;;;;;;;4999787;28;19925;-84
2023/03/31 06:01:28;;;;;;;;;;;;;;;;;;4996408;28;19917;-84
2023/03/31 06:04:15;;;;;;;;;;;;;;;;;;5004846;28;19921;-84
2023/03/31 06:07:01;;;;;;;;;;;;;;;;;;4992659;28;19917;-83
2023/03/31 06:09:48;;;;;;;;;;;;;;;;;;4998680;28;19920;-83
2023/03/31 06:12:34;;;;;;;;;;;;;;;;;;4997689;28;19929;-83
2023/03/31 06:15:21;;;;;;;;;;;;;;;;;;5002167;28;20566;-82
2023/03/31 06:18:09;;;;;;;;;;;;;;;;;;5004066;28;19922;-82
2023/03/31 06:20:55;;;;;;;;;;;;;;;;;;4986500;28;19924;-83
2023/03/31 06:23:45;;;;;;;;;;;;;;;;;;5004188;28;20439;-84
2023/03/31 06:26:31;;;;;;;;;;;;;;;;;;4991425;28;20297;-85
2023/03/31 06:29:18;;;;;;;;;;;;;;;;;;4993243;28;19922;-83
2023/03/31 06:32:04;;;;;;;;;;;;;;;;;;5000480;28;19937;-83
2023/03/31 06:34:51;;;;;;;;;;;;;;;;;;5005506;28;19921;-83
2023/03/31 06:37:37;;;;;;;;;;;;;;;;;;5008753;28;19917;-83
2023/03/31 06:40:24;;;;;;;;;;;;;;;;;;4994875;28;19921;-84
2023/03/31 06:43:10;;;;;;;;;;;;;;;;;;5006249;28;19929;-83
2023/03/31 06:45:57;;;;;;;;;;;;;;;;;;5006005;28;19918;-85
2023/03/31 06:48:43;;;;;;;;;;;;;;;;;;4997186;28;19918;-84
2023/03/31 06:51:30;;;;;;;;;;;;;;;;;;5010578;28;19937;-84
2023/03/31 06:54:16;;;;;;;;;;;;;;;;;;4997501;28;19917;-84
2023/03/31 06:57:03;;;;;;;;;;;;;;;;;;5005616;28;19924;-84
2023/03/31 06:59:49;;;;;;;;;;;;;;;;;;4992359;28;19921;-84
2023/03/31 07:02:36;;;;;;;;;;;;;;;;;;5003553;28;20370;-84
2023/03/31 07:05:26;;;;;;;;;;;;;;;;;;5004655;28;19917;-82
2023/03/31 07:08:12;;;;;;;;;;;;;;;;;;4998704;28;19924;-84
2023/03/31 07:10:59;;;;;;;;;;;;;;;;;;5001515;28;19922;-84
2023/03/31 07:13:45;;;;;;;;;;;;;;;;;;4997396;28;19921;-83
2023/03/31 07:16:32;;;;;;;;;;;;;;;;;;4998684;28;20312;-83
2023/03/31 07:19:18;;;;;;;;;;;;;;;;;;5011057;28;19930;-84
2023/03/31 07:22:05;;;;;;;;;;;;;;;;;;4997285;28;19929;-83
2023/03/31 07:24:51;;;;;;;;;;;;;;;;;;5006867;28;19924;-84
2023/03/31 07:27:38;;;;;;;;;;;;;;;;;;5003779;28;19921;-84
2023/03/31 07:30:24;;;;;;;;;;;;;;;;;;4984555;28;19925;-83
2023/03/31 07:33:11;;;;;;;;;;;;;;;;;;5008595;28;19921;-83
2023/03/31 07:35:57;;;;;;;;;;;;;;;;;;5001465;28;19924;-83
2023/03/31 07:38:44;;;;;;;;;;;;;;;;;;5001748;28;19918;-83
2023/03/31 07:41:31;;;;;;;;;;;;;;;;;;4998829;28;19925;-83
2023/03/31 07:44:17;;;;;;;;;;;;;;;;;;5004836;28;20396;-84
2023/03/31 07:47:05;;;;;;;;;;;;;;;;;;5001094;28;20392;-83
2023/03/31 07:49:51;;;;;;;;;;;;;;;;;;5002523;28;19936;-84
2023/03/31 07:52:38;;;;;;;;;;;;;;;;;;5001178;28;19917;-84
2023/03/31 07:55:25;;;;;;;;;;;;;;;;;;4996672;28;19921;-84
2023/03/31 07:58:12;;;;;;;;;;;;;;;;;;5005901;28;20012;-84
2023/03/31 08:00:58;;;;;;;;;;;;;;;;;;4985366;28;20353;-84
2023/03/31 08:03:45;;;;;;;;;;;;;;;;;;4997842;28;19936;-84
2023/03/31 08:06:31;;;;;;;;;;;;;;;;;;4994368;28;19918;-84
2023/03/31 08:09:18;;;;;;;;;;;;;;;;;;5000749;28;19924;-84
2023/03/31 08:12:05;;;;;;;;;;;;;;;;;;4996785;28;19921;-84
2023/03/31 08:14:51;;;;;;;;;;;;;;;;;;4996208;28;20309;-84
2023/03/31 08:17:37;;;;;;;;;;;;;;;;;;5000382;28;19921;-84
2023/03/31 08:20:24;;;;;;;;;;;;;;;;;;5000710;28;19925;-84
2023/03/31 08:23:11;;;;;;;;;;;;;;;;;;5000857;28;19940;-83
2023/03/31 08:25:57;;;;;;;;;;;;;;;;;;4994073;28;19918;-84
2023/03/31 08:28:44;;;;;;;;;;;;;;;;;;4996548;28;19929;-84
2023/03/31 08:31:30;;;;;;;;;;;;;;;;;;4992380;28;19918;-84
2023/03/31 08:34:17;;;;;;;;;;;;;;;;;;5005785;28;19918;-85
2023/03/31 08:37:03;;;;;;;;;;;;;;;;;;4989526;28;20008;-84
2023/03/31 08:39:49;;;;;;;;;;;;;;;;;;4998248;28;19917;-85
2023/03/31 08:42:36;;;;;;;;;;;;;;;;;;5004282;28;19921;-84
2023/03/31 08:45:23;;;;;;;;;;;;;;;;;;5007270;28;19922;-84
2023/03/31 08:48:09;;;;;;;;;;;;;;;;;;5001238;28;19924;-82
2023/03/31 08:50:56;;;;;;;;;;;;;;;;;;4999667;28;19928;-82
2023/03/31 08:53:42;;;;;;;;;;;;;;;;;;4986435;28;19993;-82
2023/03/31 08:56:29;;;;;;;;;;;;;;;;;;5002890;28;20492;-77
2023/03/31 08:59:15;;;;;;;;;;;;;;;;;;4994510;28;19918;-78
2023/03/31 09:02:02;;;;;;;;;;;;;;;;;;5003060;28;20555;-76
2023/03/31 09:04:50;;;;;;;;;;;;;;;;;;5002267;28;19921;-76
2023/03/31 09:07:37;;;;;;;;;;;;;;;;;;4990009;28;19924;-76
2023/03/31 09:10:24;;;;;;;;;;;;;;;;;;4999973;28;19922;-78
2023/03/31 09:13:11;;;;;;;;;;;;;;;;;;5000865;28;20640;-76
2023/03/31 09:15:57;;;;;;;;;;;;;;;;;;4999178;28;19937;-76
2023/03/31 09:18:47;;;;;;;;;;;;;;;;;;5001360;28;20297;-78
2023/03/31 09:21:33;;;;;;;;;;;;;;;;;;4997291;28;19928;-77
2023/03/31 09:24:20;;;;;;;;;;;;;;;;;;5006088;28;19929;-76
2023/03/31 09:27:06;;;;;;;;;;;;;;;;;;4987932;28;19924;-76
2023/03/31 09:29:53;;;;;;;;;;;;;;;;;;5001909;28;19921;-76
2023/03/31 09:32:39;;;;;;;;;;;;;;;;;;4998107;28;20395;-85
2023/03/31 09:35:26;;;;;;;;;;;;;;;;;;4999440;28;19927;-83
2023/03/31 09:38:12;;;;;;;;;;;;;;;;;;5003448;28;19918;-84
2023/03/31 09:40:59;;;;;;;;;;;;;;;;;;4999575;28;19929;-84
2023/03/31 09:43:45;;;;;;;;;;;;;;;;;;4994871;28;19925;-83
2023/03/31 09:46:32;;;;;;;;;;;;;;;;;;4994986;28;19917;-83
2023/03/31 09:49:18;;;;;;;;;;;;;;;;;;5000138;28;19921;-84
2023/03/31 09:52:05;;;;;;;;;;;;;;;;;;4988125;28;20384;-84
2023/03/31 09:54:52;;;;;;;;;;;;;;;;;;5002252;28;19921;-83
2023/03/31 09:57:38;;;;;;;;;;;;;;;;;;4983119;28;19918;-84
2023/03/31 10:00:26;;;;;;;;;;;;;;;;;;4991491;28;19913;-84
2023/03/31 10:03:13;;;;;;;;;;;;;;;;;;4998770;28;19932;-84
2023/03/31 10:06:00;;;;;;;;;;;;;;;;;;4994382;28;19927;-85
2023/03/31 10:08:46;;;;;;;;;;;;;;;;;;5002346;28;19918;-85
2023/03/31 10:11:33;;;;;;;;;;;;;;;;;;5003032;28;19989;-83
2023/03/31 10:14:19;;;;;;;;;;;;;;;;;;5000505;28;20313;-85
2023/03/31 10:17:06;;;;;;;;;;;;;;;;;;4993896;28;19924;-84
2023/03/31 10:19:53;;;;;;;;;;;;;;;;;;4996455;28;20402;-84
2023/03/31 10:22:39;;;;;;;;;;;;;;;;;;5003501;28;20101;-83
2023/03/31 10:25:25;;;;;;;;;;;;;;;;;;5003296;28;19925;-82
2023/03/31 10:28:12;;;;;;;;;;;;;;;;;;5001564;28;19917;-83
2023/03/31 10:31:02;;;;;;;;;;;;;;;;;;5000502;28;19929;-83
2023/03/31 10:33:48;;;;;;;;;;;;;;;;;;4987311;28;19922;-84
2023/03/31 10:36:35;;;;;;;;;;;;;;;;;;4992366;28;19932;-83
2023/03/31 10:39:21;;;;;;;;;;;;;;;;;;5000141;28;19929;-83
2023/03/31 10:42:08;;;;;;;;;;;;;;;;;;4995241;28;19940;-83
2023/03/31 10:44:54;;;;;;;;;;;;;;;;;;4988996;28;19928;-83
2023/03/31 10:47:41;;;;;;;;;;;;;;;;;;5003560;28;19926;-84
2023/03/31 10:50:27;;;;;;;;;;;;;;;;;;4999563;28;19924;-84
2023/03/31 10:53:14;;;;;;;;;;;;;;;;;;5002490;28;20369;-85
2023/03/31 10:56:00;;;;;;;;;;;;;;;;;;4997675;28;20528;-84
2023/03/31 10:58:47;;;;;;;;;;;;;;;;;;4996373;28;19914;-84
2023/03/31 11:01:33;;;;;;;;;;;;;;;;;;5002929;28;20250;-84
2023/03/31 11:04:20;;;;;;;;;;;;;;;;;;5001943;28;19934;-84
2023/03/31 11:07:06;;;;;;;;;;;;;;;;;;5001339;28;19924;-84
2023/03/31 11:09:53;;;;;;;;;;;;;;;;;;5003529;28;19918;-83
2023/03/31 11:12:39;;;;;;;;;;;;;;;;;;5006245;28;19941;-84
2023/03/31 11:15:26;;;;;;;;;;;;;;;;;;5007570;28;19929;-84
2023/03/31 11:18:14;;;;;;;;;;;;;;;;;;5008512;28;20139;-84
2023/03/31 11:21:01;;;;;;;;;;;;;;;;;;5006059;28;19929;-84
2023/03/31 11:23:48;;;;;;;;;;;;;;;;;;4994691;28;19932;-85
2023/03/31 11:26:34;;;;;;;;;;;;;;;;;;5004573;28;21092;-85
2023/03/31 11:29:20;;;;;;;;;;;;;;;;;;4998597;28;19922;-85
2023/03/31 11:32:08;;;;;;;;;;;;;;;;;;4994955;28;19943;-85
2023/03/31 11:34:54;;;;;;;;;;;;;;;;;;5004120;28;19918;-84
2023/03/31 11:37:41;;;;;;;;;;;;;;;;;;4996140;28;20557;-84
2023/03/31 11:40:28;;;;;;;;;;;;;;;;;;5001333;28;19925;-84
2023/03/31 11:43:14;;;;;;;;;;;;;;;;;;5005600;28;19934;-84
2023/03/31 11:46:01;;;;;;;;;;;;;;;;;;5002683;28;20396;-84
2023/03/31 11:48:47;;;;;;;;;;;;;;;;;;4994622;28;19925;-83
2023/03/31 11:51:34;;;;;;;;;;;;;;;;;;5006362;28;19924;-83
2023/03/31 11:54:20;;;;;;;;;;;;;;;;;;4997686;28;20452;-83
2023/03/31 11:57:07;;;;;;;;;;;;;;;;;;5004371;28;20138;-84
2023/03/31 11:59:53;;;;;;;;;;;;;;;;;;5001329;28;20573;-83
2023/03/31 12:02:40;;;;;;;;;;;;;;;;;;5001532;28;19984;-85
2023/03/31 12:05:26;;;;;;;;;;;;;;;;;;4990534;28;19922;-78
2023/03/31 12:08:13;;;;;;;;;;;;;;;;;;4994458;28;19928;-80
2023/03/31 12:11:00;;;;;;;;;;;;;;;;;;4997461;28;19925;-79
2023/03/31 12:13:46;;;;;;;;;;;;;;;;;;5006350;28;19976;-80
2023/03/31 12:16:33;;;;;;;;;;;;;;;;;;4999039;28;19960;-80
2023/03/31 12:19:21;;;;;;;;;;;;;;;;;;4987446;28;19948;-79
2023/03/31 12:22:07;;;;;;;;;;;;;;;;;;5001213;28;19928;-80
2023/03/31 12:24:54;;;;;;;;;;;;;;;;;;4987040;28;20304;-80
2023/03/31 12:27:41;;;;;;;;;;;;;;;;;;5005879;28;19921;-81
2023/03/31 12:30:27;;;;;;;;;;;;;;;;;;5004185;28;20252;-79
2023/03/31 12:33:13;;;;;;;;;;;;;;;;;;4994502;28;19921;-80
2023/03/31 12:36:00;;;;;;;;;;;;;;;;;;4999822;28;19922;-82
2023/03/31 12:38:46;;;;;;;;;;;;;;;;;;4994964;28;19974;-81
2023/03/31 12:41:33;;;;;;;;;;;;;;;;;;5002176;28;20293;-79
2023/03/31 12:44:19;;;;;;;;;;;;;;;;;;5004335;28;19940;-78
2023/03/31 12:47:06;;;;;;;;;;;;;;;;;;5003244;28;19918;-79
2023/03/31 12:49:52;;;;;;;;;;;;;;;;;;5005309;28;19928;-78
2023/03/31 12:52:39;;;;;;;;;;;;;;;;;;5000421;28;19914;-78
2023/03/31 12:55:27;;;;;;;;;;;;;;;;;;5007064;28;19925;-77
2023/03/31 12:58:14;;;;;;;;;;;;;;;;;;4997567;28;19917;-77
2023/03/31 13:01:00;;;;;;;;;;;;;;;;;;4996249;28;20452;-77
2023/03/31 13:03:47;;;;;;;;;;;;;;;;;;4996126;28;19933;-79
2023/03/31 13:06:33;;;;;;;;;;;;;;;;;;4996452;28;19922;-78
2023/03/31 13:09:20;;;;;;;;;;;;;;;;;;4996022;28;19924;-79
2023/03/31 13:12:06;;;;;;;;;;;;;;;;;;4995596;28;20317;-79
2023/03/31 13:14:53;;;;;;;;;;;;;;;;;;4993843;28;19925;-78
2023/03/31 13:17:40;;;;;;;;;;;;;;;;;;4998370;28;19917;-78
2023/03/31 13:20:26;;;;;;;;;;;;;;;;;;5004269;28;19936;-80
2023/03/31 13:23:13;;;;;;;;;;;;;;;;;;5003825;28;19922;-79
2023/03/31 13:25:59;;;;;;;;;;;;;;;;;;4990021;28;19929;-77
2023/03/31 13:28:46;;;;;;;;;;;;;;;;;;5004008;28;20381;-77
2023/03/31 13:31:32;;;;;;;;;;;;;;;;;;5004491;28;19923;-78
2023/03/31 13:34:19;;;;;;;;;;;;;;;;;;4998436;28;19921;-79
2023/03/31 13:37:05;;;;;;;;;;;;;;;;;;4993353;28;20369;-76
2023/03/31 13:39:52;;;;;;;;;;;;;;;;;;5004210;28;19918;-77
2023/03/31 13:42:39;;;;;;;;;;;;;;;;;;4997935;28;19918;-78
2023/03/31 13:45:26;;;;;;;;;;;;;;;;;;5002418;28;19922;-77
2023/03/31 13:48:12;;;;;;;;;;;;;;;;;;4988639;28;19921;-78
2023/03/31 13:50:59;;;;;;;;;;;;;;;;;;4995787;28;19924;-78
2023/03/31 13:53:45;;;;;;;;;;;;;;;;;;5002012;28;19921;-78
2023/03/31 13:56:32;;;;;;;;;;;;;;;;;;5003890;28;19925;-78
2023/03/31 13:59:18;;;;;;;;;;;;;;;;;;5000540;28;19921;-78
2023/03/31 14:02:05;;;;;;;;;;;;;;;;;;5000647;28;19924;-79
2023/03/31 14:04:51;;;;;;;;;;;;;;;;;;4994355;28;19933;-79
2023/03/31 14:07:38;;;;;;;;;;;;;;;;;;4994968;28;20297;-79
2023/03/31 14:10:24;;;;;;;;;;;;;;;;;;4995754;28;19924;-77
2023/03/31 14:13:11;;;;;;;;;;;;;;;;;;5003383;28;19944;-77
2023/03/31 14:15:57;;;;;;;;;;;;;;;;;;4991658;28;19930;-78
2023/03/31 14:18:44;;;;;;;;;;;;;;;;;;5001498;28;20644;-78
2023/03/31 14:21:30;;;;;;;;;;;;;;;;;;4987066;28;19930;-78
2023/03/31 14:24:17;;;;;;;;;;;;;;;;;;5002306;28;19933;-78
2023/03/31 14:27:03;;;;;;;;;;;;;;;;;;4997409;28;19925;-78
2023/03/31 14:29:50;;;;;;;;;;;;;;;;;;4994511;28;19921;-77
2023/03/31 14:32:37;;;;;;;;;;;;;;;;;;4996128;28;20370;-77
2023/03/31 14:35:25;;;;;;;;;;;;;;;;;;5003583;28;20369;-78
2023/03/31 14:38:11;;;;;;;;;;;;;;;;;;5003613;28;19922;-81
2023/03/31 14:40:59;;;;;;;;;;;;;;;;;;5000100;28;19922;-78
2023/03/31 14:43:46;;;;;;;;;;;;;;;;;;5003286;28;19925;-77
2023/03/31 14:46:32;;;;;;;;;;;;;;;;;;5002039;28;19953;-78
2023/03/31 14:49:19;;;;;;;;;;;;;;;;;;5000298;28;20289;-78
2023/03/31 14:52:06;;;;;;;;;;;;;;;;;;4998770;28;20392;-78
2023/03/31 14:54:52;;;;;;;;;;;;;;;;;;5000083;28;19928;-76
2023/03/31 14:57:40;;;;;;;;;;;;;;;;;;4995940;28;20281;-77
2023/03/31 15:00:26;;;;;;;;;;;;;;;;;;5001900;28;20297;-78
2023/03/31 15:03:13;;;;;;;;;;;;;;;;;;4994705;28;19925;-79
2023/03/31 15:05:59;;;;;;;;;;;;;;;;;;4995960;28;19925;-78
2023/03/31 15:08:46;;;;;;;;;;;;;;;;;;4997516;28;20290;-77
2023/03/31 15:11:33;;;;;;;;;;;;;;;;;;4994354;28;20348;-77
2023/03/31 15:14:20;;;;;;;;;;;;;;;;;;4995191;28;20021;-78
2023/03/31 15:17:07;;;;;;;;;;;;;;;;;;4993019;28;19989;-77
2023/03/31 15:19:53;;;;;;;;;;;;;;;;;;5000792;28;19921;-77
2023/03/31 15:22:40;;;;;;;;;;;;;;;;;;5005858;28;19925;-77
2023/03/31 15:25:26;;;;;;;;;;;;;;;;;;4989257;28;19931;-78
2023/03/31 15:28:13;;;;;;;;;;;;;;;;;;5010369;28;19917;-77
2023/03/31 15:31:00;;;;;;;;;;;;;;;;;;5001950;28;19917;-78
2023/03/31 15:33:46;;;;;;;;;;;;;;;;;;5001710;28;19921;-78
2023/03/31 15:36:33;;;;;;;;;;;;;;;;;;5000447;28;19948;-77
2023/03/31 15:39:19;;;;;;;;;;;;;;;;;;5003013;28;19918;-78
2023/03/31 15:42:06;;;;;;;;;;;;;;;;;;4998953;28;19918;-78
2023/03/31 15:44:52;;;;;;;;;;;;;;;;;;4999573;28;19936;-77
2023/03/31 15:47:39;;;;;;;;;;;;;;;;;;5004270;28;20471;-77
2023/03/31 15:50:25;;;;;;;;;;;;;;;;;;5000283;28;19929;-77
2023/03/31 15:53:12;;;;;;;;;;;;;;;;;;5001353;28;20023;-78
2023/03/31 15:55:59;;;;;;;;;;;;;;;;;;4994652;28;19922;-77
2023/03/31 15:58:45;;;;;;;;;;;;;;;;;;5006233;28;19924;-76
2023/03/31 16:01:33;;;;;;;;;;;;;;;;;;4982448;28;20312;-77
2023/03/31 16:04:19;;;;;;;;;;;;;;;;;;5000079;28;19926;-78
2023/03/31 16:07:07;;;;;;;;;;;;;;;;;;4996148;28;19924;-78
2023/03/31 16:09:53;;;;;;;;;;;;;;;;;;5001091;28;19943;-78
2023/03/31 16:12:41;;;;;;;;;;;;;;;;;;4989345;28;19928;-78
2023/03/31 16:15:28;;;;;;;;;;;;;;;;;;4999685;28;19926;-78
2023/03/31 16:18:14;;;;;;;;;;;;;;;;;;4991687;28;19922;-78
2023/03/31 16:21:01;;;;;;;;;;;;;;;;;;4984943;28;19928;-77
2023/03/31 16:23:47;;;;;;;;;;;;;;;;;;5005426;28;19967;-80
2023/03/31 16:26:34;;;;;;;;;;;;;;;;;;4999714;28;19924;-80
2023/03/31 16:29:20;;;;;;;;;;;;;;;;;;4998380;28;20357;-81
2023/03/31 16:32:07;;;;;;;;;;;;;;;;;;5003209;28;19914;-81
2023/03/31 16:34:53;;;;;;;;;;;;;;;;;;5000932;28;20284;-80
2023/03/31 16:37:40;;;;;;;;;;;;;;;;;;4998424;28;19925;-80
2023/03/31 16:40:26;;;;;;;;;;;;;;;;;;5001799;28;19925;-79
2023/03/31 16:43:13;;;;;;;;;;;;;;;;;;5000876;28;19976;-79
2023/03/31 16:45:59;;;;;;;;;;;;;;;;;;4994919;28;20364;-79
2023/03/31 16:48:46;;;;;;;;;;;;;;;;;;4994191;28;19917;-79
2023/03/31 16:51:32;;;;;;;;;;;;;;;;;;5007240;28;19924;-80
2023/03/31 16:54:19;;;;;;;;;;;;;;;;;;5007211;28;20266;-78
2023/03/31 16:57:05;;;;;;;;;;;;;;;;;;5011209;28;19924;-77
2023/03/31 16:59:52;;;;;;;;;;;;;;;;;;5001021;28;19913;-78
2023/03/31 17:02:38;;;;;;;;;;;;;;;;;;5000032;28;20259;-77
2023/03/31 17:05:25;;;;;;;;;;;;;;;;;;5001646;28;19934;-78
2023/03/31 17:08:12;;;;;;;;;;;;;;;;;;5000802;28;19914;-77
2023/03/31 17:10:58;;;;;;;;;;;;;;;;;;4997470;28;20365;-78
2023/03/31 17:13:45;;;;;;;;;;;;;;;;;;4996573;28;19913;-78
2023/03/31 17:16:31;;;;;;;;;;;;;;;;;;5003391;28;19929;-77
2023/03/31 17:19:18;;;;;;;;;;;;;;;;;;4995978;28;19928;-78
2023/03/31 17:22:05;;;;;;;;;;;;;;;;;;5002909;28;19928;-78
2023/03/31 17:24:56;;;;;;;;;;;;;;;;;;4991655;28;19948;-77
2023/03/31 17:27:42;;;;;;;;;;;;;;;;;;5002777;28;19925;-76
2023/03/31 17:30:28;;;;;;;;;;;;;;;;;;5003352;28;19922;-77
2023/03/31 17:33:15;;;;;;;;;;;;;;;;;;5001746;28;19937;-78
2023/03/31 17:36:02;;;;;;;;;;;;;;;;;;5002973;28;19921;-78
2023/03/31 17:38:49;;;;;;;;;;;;;;;;;;4995779;28;19924;-78
2023/03/31 17:41:36;;;;;;;;;;;;;;;;;;5000534;28;19927;-78
2023/03/31 17:44:22;;;;;;;;;;;;;;;;;;4995242;28;20304;-78
2023/03/31 17:47:09;;;;;;;;;;;;;;;;;;4994177;28;19924;-78
2023/03/31 17:49:55;;;;;;;;;;;;;;;;;;4998275;28;19922;-78
2023/03/31 17:52:42;;;;;;;;;;;;;;;;;;4986029;28;19922;-76
2023/03/31 17:55:29;;;;;;;;;;;;;;;;;;4989730;28;19913;-77
2023/03/31 17:58:15;;;;;;;;;;;;;;;;;;5003828;28;19922;-77
2023/03/31 18:01:02;;;;;;;;;;;;;;;;;;4993891;28;19929;-78
2023/03/31 18:03:48;;;;;;;;;;;;;;;;;;5003997;28;19925;-91
2023/03/31 18:06:35;;;;;;;;;;;;;;;;;;4996627;28;19928;-78
2023/03/31 18:09:23;;;;;;;;;;;;;;;;;;5001399;28;19924;-79
2023/03/31 18:12:10;;;;;;;;;;;;;;;;;;5003007;28;19918;-79
2023/03/31 18:14:56;;;;;;;;;;;;;;;;;;4995620;28;19933;-79
2023/03/31 18:17:43;;;;;;;;;;;;;;;;;;5002976;28;19925;-79
2023/03/31 18:20:29;;;;;;;;;;;;;;;;;;5003216;28;19932;-78
2023/03/31 18:23:16;;;;;;;;;;;;;;;;;;4989162;28;20012;-79
2023/03/31 18:26:02;;;;;;;;;;;;;;;;;;5004130;28;20595;-79
2023/03/31 18:28:49;;;;;;;;;;;;;;;;;;4995561;28;19994;-78
2023/03/31 18:31:36;;;;;;;;;;;;;;;;;;4999871;28;19922;-79
2023/03/31 18:34:22;;;;;;;;;;;;;;;;;;5003475;28;20258;-79
2023/03/31 18:37:09;;;;;;;;;;;;;;;;;;4987873;28;19930;-81
2023/03/31 18:39:55;;;;;;;;;;;;;;;;;;5002289;28;19921;-78
2023/03/31 18:42:42;;;;;;;;;;;;;;;;;;5005579;28;20084;-78
2023/03/31 18:45:29;;;;;;;;;;;;;;;;;;4984965;28;19925;-78
2023/03/31 18:48:20;;;;;;;;;;;;;;;;;;5004093;28;19927;-78
2023/03/31 18:51:07;;;;;;;;;;;;;;;;;;4994723;28;19913;-79
2023/03/31 18:53:53;;;;;;;;;;;;;;;;;;4998609;28;20757;-79
2023/03/31 18:56:40;;;;;;;;;;;;;;;;;;4982705;28;19921;-85
2023/03/31 18:59:27;;;;;;;;;;;;;;;;;;4998996;28;19917;-78